Palmersville, Tennessee
Current Conditions -  °F | °C
As of 2:55 PM on Thursday 27 Nov 2014 (Local Time) from KPHT Reporting Station
Overcast Overcast  
Wind Chill: 23°   Ceiling: 2600
Heat Index: 30°   Visibility: 10mi
Dew Point: 21°   Wind: 7mph
Humidity: 69%   Direction: 340°NNW
Pressure: 30.46"   Gusts: NA
Location:  36.4°N, 88.59°W
Report Text: KPHT 272055Z AUTO 34006KT 10SM OVC026 M01/M06 A3046 RMK
Loading
Personal Weather Stations






























Interactive Weather Map New forecast layout! Learn more

10-Day Weather Forecast

Advertisements
Track Severe Weather on mobile